sensor_id;sensor_type;location;lat;lon;timestamp;pressure;altitude;pressure_sealevel;temperature;humidity
14117;BME280;7137;51.436;6.544;2023-05-22T00:01:29;100971.53;;;17.52;100.00
14117;BME280;7137;51.436;6.544;2023-05-22T00:04:31;100971.34;;;17.71;100.00
14117;BME280;7137;51.436;6.544;2023-05-22T00:07:34;100961.56;;;17.73;100.00
14117;BME280;7137;51.436;6.544;2023-05-22T00:10:36;100965.94;;;17.74;100.00
14117;BME280;7137;51.436;6.544;2023-05-22T00:13:37;100978.00;;;17.78;100.00
14117;BME280;7137;51.436;6.544;2023-05-22T00:16:39;100984.16;;;17.79;100.00
14117;BME280;7137;51.436;6.544;2023-05-22T00:19:41;100981.97;;;18.01;100.00
14117;BME280;7137;51.436;6.544;2023-05-22T00:22:44;100983.94;;;17.98;100.00
14117;BME280;7137;51.436;6.544;2023-05-22T00:25:47;100971.84;;;17.94;100.00
14117;BME280;7137;51.436;6.544;2023-05-22T00:28:49;100969.97;;;17.96;100.00
14117;BME280;7137;51.436;6.544;2023-05-22T00:31:51;100977.81;;;17.66;100.00
14117;BME280;7137;51.436;6.544;2023-05-22T00:34:53;100960.22;;;17.35;100.00
14117;BME280;7137;51.436;6.544;2023-05-22T00:37:56;100956.88;;;17.31;100.00
14117;BME280;7137;51.436;6.544;2023-05-22T00:40:57;100947.84;;;17.19;100.00
14117;BME280;7137;51.436;6.544;2023-05-22T00:43:59;100942.41;;;17.07;100.00
14117;BME280;7137;51.436;6.544;2023-05-22T00:47:01;100921.38;;;17.05;100.00
14117;BME280;7137;51.436;6.544;2023-05-22T00:50:04;100917.88;;;17.05;100.00
14117;BME280;7137;51.436;6.544;2023-05-22T00:53:07;100934.41;;;17.08;100.00
14117;BME280;7137;51.436;6.544;2023-05-22T00:56:10;100936.34;;;17.20;100.00
14117;BME280;7137;51.436;6.544;2023-05-22T00:59:11;100942.41;;;17.07;100.00
14117;BME280;7137;51.436;6.544;2023-05-22T01:02:13;100940.94;;;17.01;100.00
14117;BME280;7137;51.436;6.544;2023-05-22T01:05:15;100939.50;;;17.11;100.00
14117;BME280;7137;51.436;6.544;2023-05-22T01:08:19;100949.47;;;17.22;100.00
14117;BME280;7137;51.436;6.544;2023-05-22T01:11:26;100948.78;;;17.18;100.00
14117;BME280;7137;51.436;6.544;2023-05-22T01:14:33;100951.16;;;17.39;100.00
14117;BME280;7137;51.436;6.544;2023-05-22T01:17:42;100946.47;;;17.44;100.00
14117;BME280;7137;51.436;6.544;2023-05-22T01:20:52;100944.09;;;17.55;100.00
14117;BME280;7137;51.436;6.544;2023-05-22T01:28:05;100936.06;;;17.57;100.00
14117;BME280;7137;51.436;6.544;2023-05-22T01:31:15;100940.06;;;17.64;100.00
14117;BME280;7137;51.436;6.544;2023-05-22T01:34:17;100937.91;;;17.86;100.00
14117;BME280;7137;51.436;6.544;2023-05-22T01:37:20;100954.56;;;17.72;100.00
14117;BME280;7137;51.436;6.544;2023-05-22T01:40:24;100952.88;;;17.71;100.00
14117;BME280;7137;51.436;6.544;2023-05-22T01:43:26;100948.41;;;17.56;100.00
14117;BME280;7137;51.436;6.544;2023-05-22T01:46:29;100954.47;;;17.42;100.00
14117;BME280;7137;51.436;6.544;2023-05-22T01:49:31;100944.16;;;17.54;100.00
14117;BME280;7137;51.436;6.544;2023-05-22T01:52:39;100949.97;;;17.44;100.00
14117;BME280;7137;51.436;6.544;2023-05-22T01:55:47;100949.13;;;17.44;100.00
14117;BME280;7137;51.436;6.544;2023-05-22T01:58:55;100950.56;;;17.49;100.00
14117;BME280;7137;51.436;6.544;2023-05-22T02:02:04;100951.16;;;17.55;100.00
14117;BME280;7137;51.436;6.544;2023-05-22T02:05:09;100950.47;;;17.51;100.00
14117;BME280;7137;51.436;6.544;2023-05-22T02:08:12;100954.22;;;17.63;100.00
14117;BME280;7137;51.436;6.544;2023-05-22T02:11:15;100941.59;;;17.84;100.00
14117;BME280;7137;51.436;6.544;2023-05-22T02:14:18;100940.94;;;17.64;100.00
14117;BME280;7137;51.436;6.544;2023-05-22T02:17:22;100939.03;;;17.66;100.00
14117;BME280;7137;51.436;6.544;2023-05-22T02:20:25;100943.56;;;17.80;100.00
14117;BME280;7137;51.436;6.544;2023-05-22T02:23:26;100946.56;;;17.74;100.00
14117;BME280;7137;51.436;6.544;2023-05-22T02:26:28;100936.41;;;17.66;100.00
14117;BME280;7137;51.436;6.544;2023-05-22T02:29:30;100953.03;;;17.68;100.00
14117;BME280;7137;51.436;6.544;2023-05-22T02:32:33;100941.19;;;17.75;100.00
14117;BME280;7137;51.436;6.544;2023-05-22T02:35:35;100938.63;;;17.58;100.00
14117;BME280;7137;51.436;6.544;2023-05-22T02:38:36;100936.69;;;17.77;100.00
14117;BME280;7137;51.436;6.544;2023-05-22T02:41:38;100935.84;;;17.45;100.00
14117;BME280;7137;51.436;6.544;2023-05-22T02:44:39;100935.06;;;17.43;100.00
14117;BME280;7137;51.436;6.544;2023-05-22T02:47:42;100930.56;;;17.45;100.00
14117;BME280;7137;51.436;6.544;2023-05-22T02:50:44;100929.16;;;17.54;100.00
14117;BME280;7137;51.436;6.544;2023-05-22T02:53:47;100922.63;;;17.45;100.00
14117;BME280;7137;51.436;6.544;2023-05-22T02:56:49;100916.72;;;17.56;100.00
14117;BME280;7137;51.436;6.544;2023-05-22T02:59:50;100919.72;;;17.50;100.00
14117;BME280;7137;51.436;6.544;2023-05-22T03:02:54;100920.91;;;17.29;100.00
14117;BME280;7137;51.436;6.544;2023-05-22T03:05:56;100926.81;;;17.18;100.00
14117;BME280;7137;51.436;6.544;2023-05-22T03:08:58;100924.69;;;17.25;100.00
14117;BME280;7137;51.436;6.544;2023-05-22T03:11:59;100923.34;;;17.17;100.00
14117;BME280;7137;51.436;6.544;2023-05-22T03:15:01;100924.84;;;17.37;100.00
14117;BME280;7137;51.436;6.544;2023-05-22T03:18:04;100925.53;;;17.25;100.00
14117;BME280;7137;51.436;6.544;2023-05-22T03:21:05;100921.38;;;17.21;100.00
14117;BME280;7137;51.436;6.544;2023-05-22T03:24:07;100929.88;;;17.42;100.00
14117;BME280;7137;51.436;6.544;2023-05-22T03:27:08;100926.56;;;17.23;100.00
14117;BME280;7137;51.436;6.544;2023-05-22T03:30:11;100926.56;;;17.23;100.00
14117;BME280;7137;51.436;6.544;2023-05-22T03:33:14;100929.19;;;17.23;100.00
14117;BME280;7137;51.436;6.544;2023-05-22T03:36:17;100921.38;;;17.21;100.00
14117;BME280;7137;51.436;6.544;2023-05-22T03:39:18;100926.88;;;17.16;100.00
14117;BME280;7137;51.436;6.544;2023-05-22T03:42:20;100923.84;;;17.24;100.00
14117;BME280;7137;51.436;6.544;2023-05-22T03:45:21;100926.28;;;17.27;100.00
14117;BME280;7137;51.436;6.544;2023-05-22T03:48:24;100927.56;;;17.36;100.00
14117;BME280;7137;51.436;6.544;2023-05-22T03:51:26;100925.34;;;17.28;100.00
14117;BME280;7137;51.436;6.544;2023-05-22T03:54:28;100920.84;;;17.30;100.00
14117;BME280;7137;51.436;6.544;2023-05-22T03:57:29;100921.47;;;17.19;100.00
14117;BME280;7137;51.436;6.544;2023-05-22T04:00:31;100924.19;;;17.18;100.00
14117;BME280;7137;51.436;6.544;2023-05-22T04:03:35;100921.00;;;17.11;100.00
14117;BME280;7137;51.436;6.544;2023-05-22T04:06:37;100926.91;;;17.32;100.00
14117;BME280;7137;51.436;6.544;2023-05-22T04:09:42;100923.25;;;17.35;100.00
14117;BME280;7137;51.436;6.544;2023-05-22T04:12:43;100931.56;;;17.27;100.00
14117;BME280;7137;51.436;6.544;2023-05-22T04:15:45;100931.91;;;17.37;100.00
14117;BME280;7137;51.436;6.544;2023-05-22T04:18:48;100935.25;;;17.25;100.00
14117;BME280;7137;51.436;6.544;2023-05-22T04:21:49;100928.00;;;17.12;100.00
14117;BME280;7137;51.436;6.544;2023-05-22T04:24:51;100932.16;;;17.01;100.00
14117;BME280;7137;51.436;6.544;2023-05-22T04:27:53;100936.44;;;17.03;100.00
14117;BME280;7137;51.436;6.544;2023-05-22T04:30:54;100943.25;;;16.91;100.00
14117;BME280;7137;51.436;6.544;2023-05-22T04:33:58;100937.22;;;17.05;100.00
14117;BME280;7137;51.436;6.544;2023-05-22T04:36:59;100933.44;;;17.25;100.00
14117;BME280;7137;51.436;6.544;2023-05-22T04:40:03;100935.50;;;17.36;100.00
14117;BME280;7137;51.436;6.544;2023-05-22T04:43:06;100934.13;;;17.44;100.00
14117;BME280;7137;51.436;6.544;2023-05-22T04:46:08;100939.81;;;17.52;100.00
14117;BME280;7137;51.436;6.544;2023-05-22T04:49:11;100941.78;;;17.65;100.00
14117;BME280;7137;51.436;6.544;2023-05-22T04:52:12;100936.75;;;17.76;100.00
14117;BME280;7137;51.436;6.544;2023-05-22T04:55:14;100941.59;;;17.84;100.00
14117;BME280;7137;51.436;6.544;2023-05-22T04:58:16;100938.66;;;18.04;100.00
14117;BME280;7137;51.436;6.544;2023-05-22T05:01:18;100935.66;;;18.24;100.00
14117;BME280;7137;51.436;6.544;2023-05-22T05:04:21;100942.31;;;18.46;100.00
14117;BME280;7137;51.436;6.544;2023-05-22T05:07:23;100937.97;;;18.59;100.00
14117;BME280;7137;51.436;6.544;2023-05-22T05:10:24;100937.81;;;18.90;100.00
14117;BME280;7137;51.436;6.544;2023-05-22T05:13:26;100937.13;;;19.15;100.00
14117;BME280;7137;51.436;6.544;2023-05-22T05:16:27;100935.63;;;19.38;100.00
14117;BME280;7137;51.436;6.544;2023-05-22T05:19:30;100942.97;;;19.62;100.00
14117;BME280;7137;51.436;6.544;2023-05-22T05:22:32;100945.78;;;19.73;100.00
14117;BME280;7137;51.436;6.544;2023-05-22T05:25:33;100950.06;;;19.88;100.00
14117;BME280;7137;51.436;6.544;2023-05-22T05:28:37;100947.22;;;20.04;100.00
14117;BME280;7137;51.436;6.544;2023-05-22T05:31:39;100951.91;;;20.26;100.00
14117;BME280;7137;51.436;6.544;2023-05-22T05:34:43;100959.25;;;20.35;100.00
14117;BME280;7137;51.436;6.544;2023-05-22T05:37:44;100960.78;;;20.64;100.00
14117;BME280;7137;51.436;6.544;2023-05-22T05:40:46;100955.91;;;20.58;97.18
14117;BME280;7137;51.436;6.544;2023-05-22T05:43:48;100956.38;;;21.27;97.00
14117;BME280;7137;51.436;6.544;2023-05-22T05:46:52;100957.13;;;22.47;92.04
14117;BME280;7137;51.436;6.544;2023-05-22T05:49:55;100967.38;;;23.09;84.47
14117;BME280;7137;51.436;6.544;2023-05-22T05:52:57;100970.63;;;23.24;82.84
14117;BME280;7137;51.436;6.544;2023-05-22T05:55:58;100975.53;;;23.62;80.05
14117;BME280;7137;51.436;6.544;2023-05-22T05:59:03;100979.47;;;25.04;72.85
14117;BME280;7137;51.436;6.544;2023-05-22T06:02:05;100969.28;;;23.84;76.35
14117;BME280;7137;51.436;6.544;2023-05-22T06:05:08;100969.34;;;22.49;82.03
14117;BME280;7137;51.436;6.544;2023-05-22T06:08:10;100976.31;;;23.19;80.39
14117;BME280;7137;51.436;6.544;2023-05-22T06:11:12;100970.94;;;24.79;74.66
14117;BME280;7137;51.436;6.544;2023-05-22T06:14:14;100971.09;;;26.82;65.44
14117;BME280;7137;51.436;6.544;2023-05-22T06:17:15;100979.56;;;28.05;62.08
14117;BME280;7137;51.436;6.544;2023-05-22T06:20:18;100985.28;;;27.02;61.17
14117;BME280;7137;51.436;6.544;2023-05-22T06:23:20;100981.56;;;25.90;65.73
14117;BME280;7137;51.436;6.544;2023-05-22T06:26:22;100986.22;;;25.38;68.19
14117;BME280;7137;51.436;6.544;2023-05-22T06:29:25;100987.22;;;27.19;61.84
14117;BME280;7137;51.436;6.544;2023-05-22T06:32:26;100998.13;;;27.36;61.55
14117;BME280;7137;51.436;6.544;2023-05-22T06:35:29;100998.06;;;25.36;67.79
14117;BME280;7137;51.436;6.544;2023-05-22T06:38:31;100996.84;;;25.09;70.23
14117;BME280;7137;51.436;6.544;2023-05-22T06:41:33;100992.22;;;23.09;76.04
14117;BME280;7137;51.436;6.544;2023-05-22T06:44:35;100989.78;;;22.95;79.51
14117;BME280;7137;51.436;6.544;2023-05-22T06:47:36;101000.03;;;22.77;78.00
14117;BME280;7137;51.436;6.544;2023-05-22T06:50:39;101001.41;;;24.14;74.31
14117;BME280;7137;51.436;6.544;2023-05-22T06:53:41;100990.66;;;24.05;73.14
14117;BME280;7137;51.436;6.544;2023-05-22T06:56:44;100991.31;;;23.65;74.67
14117;BME280;7137;51.436;6.544;2023-05-22T06:59:45;100999.16;;;22.77;78.09
14117;BME280;7137;51.436;6.544;2023-05-22T07:02:47;100995.47;;;22.33;80.83
14117;BME280;7137;51.436;6.544;2023-05-22T07:05:50;100997.97;;;21.76;84.51
14117;BME280;7137;51.436;6.544;2023-05-22T07:08:52;101006.47;;;21.81;84.50
14117;BME280;7137;51.436;6.544;2023-05-22T07:11:54;101010.34;;;22.25;82.53
14117;BME280;7137;51.436;6.544;2023-05-22T07:14:55;101008.97;;;21.09;86.48
14117;BME280;7137;51.436;6.544;2023-05-22T07:17:59;101019.50;;;20.47;90.55
14117;BME280;7137;51.436;6.544;2023-05-22T07:21:02;101017.91;;;20.44;91.43
14117;BME280;7137;51.436;6.544;2023-05-22T07:24:04;101025.47;;;19.70;93.03
14117;BME280;7137;51.436;6.544;2023-05-22T07:27:08;101035.97;;;20.25;93.06
14117;BME280;7137;51.436;6.544;2023-05-22T07:30:11;101034.28;;;20.24;93.03
14117;BME280;7137;51.436;6.544;2023-05-22T07:33:12;101027.75;;;19.76;96.43
14117;BME280;7137;51.436;6.544;2023-05-22T07:36:15;101028.50;;;20.05;95.86
14117;BME280;7137;51.436;6.544;2023-05-22T07:39:18;101032.38;;;20.26;93.37
14117;BME280;7137;51.436;6.544;2023-05-22T07:42:19;101027.78;;;19.47;94.09
14117;BME280;7137;51.436;6.544;2023-05-22T07:45:21;101039.53;;;19.99;93.76
14117;BME280;7137;51.436;6.544;2023-05-22T07:48:22;101039.63;;;19.42;95.33
14117;BME280;7137;51.436;6.544;2023-05-22T07:51:26;101043.09;;;19.42;96.52
14117;BME280;7137;51.436;6.544;2023-05-22T07:54:27;101045.22;;;19.09;97.44
14117;BME280;7137;51.436;6.544;2023-05-22T07:57:29;101051.47;;;18.93;99.43
14117;BME280;7137;51.436;6.544;2023-05-22T08:00:30;101050.31;;;18.83;99.63
14117;BME280;7137;51.436;6.544;2023-05-22T08:03:32;101046.19;;;19.08;98.23
14117;BME280;7137;51.436;6.544;2023-05-22T08:06:35;101055.06;;;18.92;97.75
14117;BME280;7137;51.436;6.544;2023-05-22T08:09:36;101057.50;;;18.81;99.41
14117;BME280;7137;51.436;6.544;2023-05-22T08:12:38;101055.09;;;18.62;99.57
14117;BME280;7137;51.436;6.544;2023-05-22T08:15:40;101052.75;;;18.42;98.80
14117;BME280;7137;51.436;6.544;2023-05-22T08:18:41;101064.03;;;18.46;100.00
14117;BME280;7137;51.436;6.544;2023-05-22T08:21:44;101062.41;;;18.27;99.55
14117;BME280;7137;51.436;6.544;2023-05-22T08:24:45;101067.22;;;18.21;100.00
14117;BME280;7137;51.436;6.544;2023-05-22T08:27:47;101072.25;;;18.55;100.00
14117;BME280;7137;51.436;6.544;2023-05-22T08:30:49;101068.09;;;18.95;98.10
14117;BME280;7137;51.436;6.544;2023-05-22T08:33:50;101066.78;;;18.88;96.21
14117;BME280;7137;51.436;6.544;2023-05-22T08:36:54;101068.13;;;19.10;95.33
14117;BME280;7137;51.436;6.544;2023-05-22T08:39:56;101067.44;;;18.92;96.74
14117;BME280;7137;51.436;6.544;2023-05-22T08:42:58;101076.44;;;18.59;96.17
14117;BME280;7137;51.436;6.544;2023-05-22T08:46:02;101073.00;;;18.57;96.39
14117;BME280;7137;51.436;6.544;2023-05-22T08:49:05;101078.69;;;18.95;93.73
14117;BME280;7137;51.436;6.544;2023-05-22T08:52:12;101075.88;;;19.13;91.56
14117;BME280;7137;51.436;6.544;2023-05-22T08:55:13;101074.91;;;19.14;91.46
14117;BME280;7137;51.436;6.544;2023-05-22T08:58:15;101088.34;;;19.11;91.56
14117;BME280;7137;51.436;6.544;2023-05-22T09:01:17;101079.66;;;18.94;93.58
14117;BME280;7137;51.436;6.544;2023-05-22T09:04:20;101070.66;;;18.97;94.06
14117;BME280;7137;51.436;6.544;2023-05-22T09:07:24;101074.84;;;19.15;92.20
14117;BME280;7137;51.436;6.544;2023-05-22T09:10:27;101075.50;;;19.19;93.25
14117;BME280;7137;51.436;6.544;2023-05-22T09:13:30;101074.38;;;19.23;93.44
14117;BME280;7137;51.436;6.544;2023-05-22T09:16:32;101075.94;;;19.54;90.40
14117;BME280;7137;51.436;6.544;2023-05-22T09:19:33;101074.28;;;19.94;88.91
14117;BME280;7137;51.436;6.544;2023-05-22T09:22:37;101079.34;;;20.11;86.51
14117;BME280;7137;51.436;6.544;2023-05-22T09:25:40;101078.84;;;19.92;88.74
14117;BME280;7137;51.436;6.544;2023-05-22T09:28:42;101080.78;;;19.76;87.37
14117;BME280;7137;51.436;6.544;2023-05-22T09:31:43;101087.41;;;20.10;88.07
14117;BME280;7137;51.436;6.544;2023-05-22T09:34:45;101084.19;;;20.59;85.61
14117;BME280;7137;51.436;6.544;2023-05-22T09:37:49;101081.56;;;21.22;83.79
14117;BME280;7137;51.436;6.544;2023-05-22T09:40:52;101077.03;;;20.99;82.57
14117;BME280;7137;51.436;6.544;2023-05-22T09:43:54;101078.59;;;20.76;82.24
14117;BME280;7137;51.436;6.544;2023-05-22T09:46:56;101083.69;;;21.55;80.06
14117;BME280;7137;51.436;6.544;2023-05-22T09:49:59;101076.41;;;22.66;76.04
14117;BME280;7137;51.436;6.544;2023-05-22T09:53:04;101080.25;;;23.86;70.05
14117;BME280;7137;51.436;6.544;2023-05-22T09:56:11;101087.41;;;24.40;67.43
14117;BME280;7137;51.436;6.544;2023-05-22T09:59:14;101083.69;;;23.44;70.42
14117;BME280;7137;51.436;6.544;2023-05-22T10:02:21;101083.09;;;24.06;70.37
14117;BME280;7137;51.436;6.544;2023-05-22T10:05:26;101082.44;;;24.36;69.22
14117;BME280;7137;51.436;6.544;2023-05-22T10:08:37;101078.22;;;27.31;58.87
14117;BME280;7137;51.436;6.544;2023-05-22T10:11:42;101075.28;;;26.58;59.53
14117;BME280;7137;51.436;6.544;2023-05-22T10:14:45;101075.34;;;28.68;51.98
14117;BME280;7137;51.436;6.544;2023-05-22T10:17:47;101076.56;;;28.30;55.85
14117;BME280;7137;51.436;6.544;2023-05-22T10:20:48;101071.16;;;26.83;58.48
14117;BME280;7137;51.436;6.544;2023-05-22T10:23:52;101068.59;;;28.10;56.75
14117;BME280;7137;51.436;6.544;2023-05-22T10:26:55;101072.91;;;28.21;57.09
14117;BME280;7137;51.436;6.544;2023-05-22T10:30:02;101076.78;;;27.46;56.48
14117;BME280;7137;51.436;6.544;2023-05-22T10:33:10;101068.63;;;27.65;56.14
14117;BME280;7137;51.436;6.544;2023-05-22T10:36:26;101069.75;;;28.08;55.79
14117;BME280;7137;51.436;6.544;2023-05-22T10:39:37;101066.25;;;27.25;57.07
14117;BME280;7137;51.436;6.544;2023-05-22T10:42:42;101063.84;;;25.98;61.65
14117;BME280;7137;51.436;6.544;2023-05-22T10:45:45;101067.94;;;26.21;61.07
14117;BME280;7137;51.436;6.544;2023-05-22T10:48:48;101066.22;;;25.41;62.73
14117;BME280;7137;51.436;6.544;2023-05-22T10:51:54;101052.69;;;26.02;64.53
14117;BME280;7137;51.436;6.544;2023-05-22T10:54:58;101058.09;;;25.53;64.58
14117;BME280;7137;51.436;6.544;2023-05-22T10:58:11;101061.56;;;26.90;58.71
14117;BME280;7137;51.436;6.544;2023-05-22T11:01:16;101050.50;;;26.37;62.66
14117;BME280;7137;51.436;6.544;2023-05-22T11:04:17;101060.81;;;25.32;64.59
14117;BME280;7137;51.436;6.544;2023-05-22T11:07:19;101055.91;;;25.87;63.02
14117;BME280;7137;51.436;6.544;2023-05-22T11:10:26;101046.69;;;25.60;66.10
14117;BME280;7137;51.436;6.544;2023-05-22T11:13:50;101048.03;;;25.45;65.21
14117;BME280;7137;51.436;6.544;2023-05-22T11:16:58;101041.69;;;25.36;65.07
14117;BME280;7137;51.436;6.544;2023-05-22T11:20:01;101040.47;;;24.89;66.28
14117;BME280;7137;51.436;6.544;2023-05-22T11:23:05;101041.09;;;25.23;66.66
14117;BME280;7137;51.436;6.544;2023-05-22T11:26:18;101040.16;;;25.93;63.19
14117;BME280;7137;51.436;6.544;2023-05-22T11:29:22;101036.94;;;26.38;61.13
14117;BME280;7137;51.436;6.544;2023-05-22T11:32:26;101030.84;;;25.88;63.06
14117;BME280;7137;51.436;6.544;2023-05-22T11:35:28;101026.25;;;26.95;59.98
14117;BME280;7137;51.436;6.544;2023-05-22T11:38:29;101029.72;;;26.58;60.02
14117;BME280;7137;51.436;6.544;2023-05-22T11:41:33;101027.34;;;26.55;60.87
14117;BME280;7137;51.436;6.544;2023-05-22T11:44:37;101028.63;;;25.43;63.40
14117;BME280;7137;51.436;6.544;2023-05-22T11:47:39;101023.78;;;24.97;66.53
14117;BME280;7137;51.436;6.544;2023-05-22T11:50:42;101020.63;;;25.53;63.33
14117;BME280;7137;51.436;6.544;2023-05-22T11:53:43;101022.13;;;25.36;65.08
14117;BME280;7137;51.436;6.544;2023-05-22T11:56:47;101011.25;;;26.45;63.71
14117;BME280;7137;51.436;6.544;2023-05-22T11:59:48;101021.44;;;27.35;59.51
14117;BME280;7137;51.436;6.544;2023-05-22T12:02:50;101019.88;;;27.05;58.89
14117;BME280;7137;51.436;6.544;2023-05-22T12:05:53;101016.69;;;26.82;62.69
14117;BME280;7137;51.436;6.544;2023-05-22T12:08:55;101009.59;;;27.28;58.06
14117;BME280;7137;51.436;6.544;2023-05-22T12:11:58;101003.81;;;27.78;59.32
14117;BME280;7137;51.436;6.544;2023-05-22T12:15:04;101010.75;;;27.26;59.78
14117;BME280;7137;51.436;6.544;2023-05-22T12:18:07;101000.88;;;27.71;58.75
14117;BME280;7137;51.436;6.544;2023-05-22T12:21:10;101004.19;;;27.38;57.71
14117;BME280;7137;51.436;6.544;2023-05-22T12:24:11;101003.22;;;26.45;60.16
14117;BME280;7137;51.436;6.544;2023-05-22T12:27:14;101001.66;;;27.36;59.89
14117;BME280;7137;51.436;6.544;2023-05-22T12:30:16;101002.59;;;27.45;57.52
14117;BME280;7137;51.436;6.544;2023-05-22T12:33:18;100995.69;;;27.15;58.51
14117;BME280;7137;51.436;6.544;2023-05-22T12:36:20;100989.53;;;27.05;58.15
14117;BME280;7137;51.436;6.544;2023-05-22T12:39:21;100995.25;;;27.47;57.00
14117;BME280;7137;51.436;6.544;2023-05-22T12:42:25;100999.44;;;27.04;58.83
14117;BME280;7137;51.436;6.544;2023-05-22T12:45:26;100996.44;;;26.51;59.95
14117;BME280;7137;51.436;6.544;2023-05-22T12:48:28;100989.72;;;26.37;59.92
14117;BME280;7137;51.436;6.544;2023-05-22T12:51:30;100987.00;;;25.69;61.63
14117;BME280;7137;51.436;6.544;2023-05-22T12:54:32;100979.41;;;26.23;61.07
14117;BME280;7137;51.436;6.544;2023-05-22T12:57:35;100980.06;;;26.54;60.31
14117;BME280;7137;51.436;6.544;2023-05-22T13:00:37;100979.94;;;26.46;61.64
14117;BME280;7137;51.436;6.544;2023-05-22T13:03:39;100982.09;;;26.89;60.11
14117;BME280;7137;51.436;6.544;2023-05-22T13:06:40;100972.75;;;26.93;61.13
14117;BME280;7137;51.436;6.544;2023-05-22T13:09:42;100974.88;;;27.27;59.17
14117;BME280;7137;51.436;6.544;2023-05-22T13:12:45;100974.22;;;26.78;61.29
14117;BME280;7137;51.436;6.544;2023-05-22T13:15:50;100978.97;;;26.93;61.76
14117;BME280;7137;51.436;6.544;2023-05-22T13:18:51;100984.19;;;27.05;59.07
14117;BME280;7137;51.436;6.544;2023-05-22T13:21:53;100978.69;;;26.87;59.98
14117;BME280;7137;51.436;6.544;2023-05-22T13:24:54;100969.38;;;26.25;62.82
14117;BME280;7137;51.436;6.544;2023-05-22T13:27:57;100974.44;;;26.94;60.43
14117;BME280;7137;51.436;6.544;2023-05-22T13:30:59;100968.00;;;27.14;59.66
14117;BME280;7137;51.436;6.544;2023-05-22T13:34:01;100974.63;;;27.47;60.46
14117;BME280;7137;51.436;6.544;2023-05-22T13:37:03;100965.44;;;26.85;59.08
14117;BME280;7137;51.436;6.544;2023-05-22T13:40:05;100969.91;;;27.04;59.26
14117;BME280;7137;51.436;6.544;2023-05-22T13:43:09;100969.50;;;27.27;59.16
14117;BME280;7137;51.436;6.544;2023-05-22T13:46:10;100978.53;;;27.53;57.95
14117;BME280;7137;51.436;6.544;2023-05-22T13:49:12;100971.94;;;28.01;56.41
14117;BME280;7137;51.436;6.544;2023-05-22T13:52:13;100959.59;;;27.72;55.90
14117;BME280;7137;51.436;6.544;2023-05-22T13:55:15;100958.03;;;26.70;59.07
14117;BME280;7137;51.436;6.544;2023-05-22T13:58:18;100962.19;;;26.45;60.74
14117;BME280;7137;51.436;6.544;2023-05-22T14:01:19;100962.13;;;26.64;61.79
14117;BME280;7137;51.436;6.544;2023-05-22T14:04:21;100965.13;;;26.88;58.60
14117;BME280;7137;51.436;6.544;2023-05-22T14:07:23;100967.53;;;26.91;59.99
14117;BME280;7137;51.436;6.544;2023-05-22T14:10:24;100969.78;;;27.51;59.02
14117;BME280;7137;51.436;6.544;2023-05-22T14:13:27;100968.63;;;27.08;59.31
14117;BME280;7137;51.436;6.544;2023-05-22T14:16:29;100959.38;;;27.20;59.77
14117;BME280;7137;51.436;6.544;2023-05-22T14:19:30;100969.84;;;27.41;59.08
14117;BME280;7137;51.436;6.544;2023-05-22T14:22:32;100969.66;;;27.25;59.33
14117;BME280;7137;51.436;6.544;2023-05-22T14:25:33;100965.94;;;27.36;58.81
14117;BME280;7137;51.436;6.544;2023-05-22T14:28:36;100971.38;;;27.16;60.23
14117;BME280;7137;51.436;6.544;2023-05-22T14:31:45;100970.41;;;26.80;60.72
14117;BME280;7137;51.436;6.544;2023-05-22T14:34:47;100973.09;;;26.80;60.24
14117;BME280;7137;51.436;6.544;2023-05-22T14:37:48;100968.13;;;26.85;61.58
14117;BME280;7137;51.436;6.544;2023-05-22T14:40:50;100967.28;;;26.48;62.29
14117;BME280;7137;51.436;6.544;2023-05-22T14:43:53;100960.69;;;26.70;60.95
14117;BME280;7137;51.436;6.544;2023-05-22T14:46:54;100957.34;;;26.95;60.39
14117;BME280;7137;51.436;6.544;2023-05-22T14:49:56;100958.97;;;27.15;60.19
14117;BME280;7137;51.436;6.544;2023-05-22T14:52:57;100954.53;;;26.97;56.97
14117;BME280;7137;51.436;6.544;2023-05-22T14:55:59;100954.81;;;26.56;58.89
14117;BME280;7137;51.436;6.544;2023-05-22T14:59:02;100949.28;;;26.68;60.05
14117;BME280;7137;51.436;6.544;2023-05-22T15:02:04;100949.00;;;27.08;58.25
14117;BME280;7137;51.436;6.544;2023-05-22T15:05:06;100946.84;;;27.39;57.72
14117;BME280;7137;51.436;6.544;2023-05-22T15:08:07;100947.44;;;27.33;56.70
14117;BME280;7137;51.436;6.544;2023-05-22T15:11:09;100938.59;;;27.23;58.32
14117;BME280;7137;51.436;6.544;2023-05-22T15:14:12;100939.44;;;26.96;58.94
14117;BME280;7137;51.436;6.544;2023-05-22T15:17:13;100934.13;;;27.13;57.24
14117;BME280;7137;51.436;6.544;2023-05-22T15:20:15;100937.59;;;27.06;57.58
14117;BME280;7137;51.436;6.544;2023-05-22T15:23:17;100928.97;;;26.65;57.30
14117;BME280;7137;51.436;6.544;2023-05-22T15:26:18;100932.81;;;26.53;58.62
14117;BME280;7137;51.436;6.544;2023-05-22T15:29:21;100930.69;;;26.56;58.18
14117;BME280;7137;51.436;6.544;2023-05-22T15:32:23;100928.56;;;26.60;58.39
14117;BME280;7137;51.436;6.544;2023-05-22T15:35:25;100928.63;;;26.50;57.66
14117;BME280;7137;51.436;6.544;2023-05-22T15:38:30;100931.28;;;26.50;56.82
14117;BME280;7137;51.436;6.544;2023-05-22T15:41:31;100925.41;;;26.37;56.42
14117;BME280;7137;51.436;6.544;2023-05-22T15:44:34;100926.97;;;26.01;58.13
14117;BME280;7137;51.436;6.544;2023-05-22T15:47:35;100930.94;;;25.87;58.26
14117;BME280;7137;51.436;6.544;2023-05-22T15:50:37;100924.59;;;26.08;58.29
14117;BME280;7137;51.436;6.544;2023-05-22T15:53:38;100925.13;;;26.11;57.62
14117;BME280;7137;51.436;6.544;2023-05-22T15:56:40;100929.22;;;26.15;58.62
14117;BME280;7137;51.436;6.544;2023-05-22T15:59:43;100926.72;;;25.85;58.75
14117;BME280;7137;51.436;6.544;2023-05-22T16:02:46;100936.84;;;25.62;59.42
14117;BME280;7137;51.436;6.544;2023-05-22T16:05:48;100932.31;;;25.53;58.60
14117;BME280;7137;51.436;6.544;2023-05-22T16:08:50;100925.31;;;25.90;57.67